sensor_id;sensor_type;location;lat;lon;timestamp;pressure;altitude;pressure_sealevel;temperature;humidity
59103;BME280;43999;51.660;5.616;2023-05-27T00:00:24;102701.81;;;10.26;99.76
59103;BME280;43999;51.660;5.616;2023-05-27T00:02:51;102710.66;;;10.20;99.99
59103;BME280;43999;51.660;5.616;2023-05-27T00:05:19;102709.84;;;10.18;99.68
59103;BME280;43999;51.660;5.616;2023-05-27T00:07:47;102705.56;;;10.14;99.96
59103;BME280;43999;51.660;5.616;2023-05-27T00:10:14;102703.91;;;10.10;100.00
59103;BME280;43999;51.660;5.616;2023-05-27T00:12:42;102705.72;;;10.07;100.00
59103;BME280;43999;51.660;5.616;2023-05-27T00:15:10;102698.84;;;10.02;100.00
59103;BME280;43999;51.660;5.616;2023-05-27T00:17:37;102697.16;;;10.00;100.00
59103;BME280;43999;51.660;5.616;2023-05-27T00:20:06;102702.53;;;9.94;100.00
59103;BME280;43999;51.660;5.616;2023-05-27T00:22:35;102695.53;;;9.93;100.00
59103;BME280;43999;51.660;5.616;2023-05-27T00:25:04;102700.81;;;9.91;100.00
59103;BME280;43999;51.660;5.616;2023-05-27T00:27:32;102699.19;;;9.87;100.00
59103;BME280;43999;51.660;5.616;2023-05-27T00:29:59;102686.22;;;9.81;100.00
59103;BME280;43999;51.660;5.616;2023-05-27T00:32:27;102701.13;;;9.76;100.00
59103;BME280;43999;51.660;5.616;2023-05-27T00:34:54;102695.13;;;9.71;100.00
59103;BME280;43999;51.660;5.616;2023-05-27T00:37:22;102699.59;;;9.67;100.00
59103;BME280;43999;51.660;5.616;2023-05-27T00:39:50;102691.78;;;9.64;100.00
59103;BME280;43999;51.660;5.616;2023-05-27T00:42:18;102687.53;;;9.58;100.00
59103;BME280;43999;51.660;5.616;2023-05-27T00:44:47;102688.50;;;9.52;100.00
59103;BME280;43999;51.660;5.616;2023-05-27T00:47:15;102691.13;;;9.52;100.00
59103;BME280;43999;51.660;5.616;2023-05-27T00:49:44;102692.06;;;9.50;100.00
59103;BME280;43999;51.660;5.616;2023-05-27T00:52:12;102691.28;;;9.45;100.00
59103;BME280;43999;51.660;5.616;2023-05-27T00:54:41;102683.53;;;9.39;100.00
59103;BME280;43999;51.660;5.616;2023-05-27T00:57:09;102681.84;;;9.38;100.00
59103;BME280;43999;51.660;5.616;2023-05-27T00:59:36;102684.47;;;9.38;100.00
59103;BME280;43999;51.660;5.616;2023-05-27T01:02:05;102680.16;;;9.33;100.00
59103;BME280;43999;51.660;5.616;2023-05-27T01:04:32;102678.53;;;9.28;100.00
59103;BME280;43999;51.660;5.616;2023-05-27T01:10:07;102672.53;;;9.23;100.00
59103;BME280;43999;51.660;5.616;2023-05-27T01:13:06;102676.13;;;9.17;100.00
59103;BME280;43999;51.660;5.616;2023-05-27T01:15:52;102671.91;;;9.10;100.00
59103;BME280;43999;51.660;5.616;2023-05-27T01:18:22;102678.88;;;9.11;100.00
59103;BME280;43999;51.660;5.616;2023-05-27T01:20:53;102678.91;;;9.08;100.00
59103;BME280;43999;51.660;5.616;2023-05-27T01:23:28;102665.09;;;9.00;100.00
59103;BME280;43999;51.660;5.616;2023-05-27T01:25:57;102671.25;;;8.99;100.00
59103;BME280;43999;51.660;5.616;2023-05-27T01:28:24;102679.09;;;8.99;100.00
59103;BME280;43999;51.660;5.616;2023-05-27T01:30:55;102674.75;;;8.96;100.00
59103;BME280;43999;51.660;5.616;2023-05-27T01:33:35;102661.78;;;8.91;100.00
59103;BME280;43999;51.660;5.616;2023-05-27T01:36:16;102672.25;;;8.90;100.00
59103;BME280;43999;51.660;5.616;2023-05-27T01:38:48;102677.50;;;8.88;100.00
59103;BME280;43999;51.660;5.616;2023-05-27T01:41:18;102670.59;;;8.84;100.00
59103;BME280;43999;51.660;5.616;2023-05-27T01:43:46;102665.44;;;8.79;100.00
59103;BME280;43999;51.660;5.616;2023-05-27T01:46:15;102664.59;;;8.79;100.00
59103;BME280;43999;51.660;5.616;2023-05-27T01:48:43;102658.56;;;8.75;100.00
59103;BME280;43999;51.660;5.616;2023-05-27T01:51:11;102662.91;;;8.75;100.00
59103;BME280;43999;51.660;5.616;2023-05-27T01:53:39;102658.63;;;8.72;100.00
59103;BME280;43999;51.660;5.616;2023-05-27T01:56:07;102669.06;;;8.72;100.00
59103;BME280;43999;51.660;5.616;2023-05-27T01:58:34;102654.34;;;8.67;100.00
59103;BME280;43999;51.660;5.616;2023-05-27T02:01:02;102655.22;;;8.66;100.00
59103;BME280;43999;51.660;5.616;2023-05-27T02:03:29;102651.84;;;8.60;100.00
59103;BME280;43999;51.660;5.616;2023-05-27T02:05:57;102658.81;;;8.60;100.00
59103;BME280;43999;51.660;5.616;2023-05-27T02:08:25;102659.69;;;8.59;100.00
59103;BME280;43999;51.660;5.616;2023-05-27T02:10:53;102664.97;;;8.56;100.00
59103;BME280;43999;51.660;5.616;2023-05-27T02:13:21;102663.25;;;8.55;100.00
59103;BME280;43999;51.660;5.616;2023-05-27T02:15:48;102666.78;;;8.52;100.00
59103;BME280;43999;51.660;5.616;2023-05-27T02:18:16;102656.41;;;8.48;100.00
59103;BME280;43999;51.660;5.616;2023-05-27T02:20:44;102654.66;;;8.48;100.00
59103;BME280;43999;51.660;5.616;2023-05-27T02:23:13;102662.50;;;8.47;100.00
59103;BME280;43999;51.660;5.616;2023-05-27T02:25:40;102663.41;;;8.42;100.00
59103;BME280;43999;51.660;5.616;2023-05-27T02:28:08;102658.25;;;8.38;100.00
59103;BME280;43999;51.660;5.616;2023-05-27T02:30:36;102656.53;;;8.37;100.00
59103;BME280;43999;51.660;5.616;2023-05-27T02:33:03;102653.09;;;8.33;100.00
59103;BME280;43999;51.660;5.616;2023-05-27T02:35:32;102659.22;;;8.32;100.00
59103;BME280;43999;51.660;5.616;2023-05-27T02:38:00;102660.97;;;8.30;100.00
59103;BME280;43999;51.660;5.616;2023-05-27T02:40:28;102658.44;;;8.25;100.00
59103;BME280;43999;51.660;5.616;2023-05-27T02:42:56;102664.56;;;8.24;100.00
59103;BME280;43999;51.660;5.616;2023-05-27T02:45:24;102663.69;;;8.22;100.00
59103;BME280;43999;51.660;5.616;2023-05-27T02:47:53;102667.25;;;8.18;100.00
59103;BME280;43999;51.660;5.616;2023-05-27T02:50:22;102664.69;;;8.17;100.00
59103;BME280;43999;51.660;5.616;2023-05-27T02:52:50;102655.16;;;8.13;100.00
59103;BME280;43999;51.660;5.616;2023-05-27T02:55:17;102667.41;;;8.09;100.00
59103;BME280;43999;51.660;5.616;2023-05-27T02:57:44;102671.75;;;8.07;100.00
59103;BME280;43999;51.660;5.616;2023-05-27T03:00:13;102679.59;;;8.07;100.00
59103;BME280;43999;51.660;5.616;2023-05-27T03:02:44;102682.22;;;8.05;100.00
59103;BME280;43999;51.660;5.616;2023-05-27T03:05:13;102674.41;;;8.04;100.00
59103;BME280;43999;51.660;5.616;2023-05-27T03:07:41;102677.03;;;8.02;100.00
59103;BME280;43999;51.660;5.616;2023-05-27T03:10:08;102675.34;;;8.00;100.00
59103;BME280;43999;51.660;5.616;2023-05-27T03:12:36;102678.03;;;7.95;100.00
59103;BME280;43999;51.660;5.616;2023-05-27T03:15:04;102672.06;;;7.85;100.00
59103;BME280;43999;51.660;5.616;2023-05-27T03:17:37;102673.00;;;7.80;100.00
59103;BME280;43999;51.660;5.616;2023-05-27T03:20:06;102675.66;;;7.75;100.00
59103;BME280;43999;51.660;5.616;2023-05-27T03:22:35;102680.94;;;7.72;100.00
59103;BME280;43999;51.660;5.616;2023-05-27T03:25:04;102681.81;;;7.69;100.00
59103;BME280;43999;51.660;5.616;2023-05-27T03:27:32;102675.78;;;7.66;100.00
59103;BME280;43999;51.660;5.616;2023-05-27T03:30:05;102675.78;;;7.67;100.00
59103;BME280;43999;51.660;5.616;2023-05-27T03:32:36;102668.00;;;7.63;100.00
59103;BME280;43999;51.660;5.616;2023-05-27T03:35:04;102667.16;;;7.61;100.00
59103;BME280;43999;51.660;5.616;2023-05-27T03:37:32;102669.81;;;7.56;100.00
59103;BME280;43999;51.660;5.616;2023-05-27T03:40:04;102662.06;;;7.51;100.00
59103;BME280;43999;51.660;5.616;2023-05-27T03:42:33;102656.88;;;7.47;100.00
59103;BME280;43999;51.660;5.616;2023-05-27T03:45:01;102662.97;;;7.46;100.00
59103;BME280;43999;51.660;5.616;2023-05-27T03:47:29;102649.09;;;7.44;100.00
59103;BME280;43999;51.660;5.616;2023-05-27T03:49:56;102647.34;;;7.44;100.00
59103;BME280;43999;51.660;5.616;2023-05-27T03:52:24;102644.72;;;7.46;100.00
59103;BME280;43999;51.660;5.616;2023-05-27T03:54:51;102650.81;;;7.45;100.00
59103;BME280;43999;51.660;5.616;2023-05-27T03:57:19;102643.00;;;7.43;100.00
59103;BME280;43999;51.660;5.616;2023-05-27T03:59:46;102642.97;;;7.45;100.00
59103;BME280;43999;51.660;5.616;2023-05-27T04:02:14;102637.81;;;7.42;100.00
59103;BME280;43999;51.660;5.616;2023-05-27T04:04:42;102643.91;;;7.41;100.00
59103;BME280;43999;51.660;5.616;2023-05-27T04:07:10;102643.97;;;7.36;100.00
59103;BME280;43999;51.660;5.616;2023-05-27T04:09:43;102639.66;;;7.33;100.00
59103;BME280;43999;51.660;5.616;2023-05-27T04:12:10;102636.16;;;7.34;100.00
59103;BME280;43999;51.660;5.616;2023-05-27T04:14:37;102643.97;;;7.36;100.00
59103;BME280;43999;51.660;5.616;2023-05-27T04:17:06;102646.59;;;7.36;100.00
59103;BME280;43999;51.660;5.616;2023-05-27T04:19:36;102640.47;;;7.37;100.00
59103;BME280;43999;51.660;5.616;2023-05-27T04:22:04;102636.13;;;7.39;100.00
59103;BME280;43999;51.660;5.616;2023-05-27T04:24:32;102634.34;;;7.41;100.00
59103;BME280;43999;51.660;5.616;2023-05-27T04:27:01;102633.50;;;7.41;100.00
59103;BME280;43999;51.660;5.616;2023-05-27T04:29:29;102635.13;;;7.46;100.00
59103;BME280;43999;51.660;5.616;2023-05-27T04:31:59;102628.19;;;7.47;100.00
59103;BME280;43999;51.660;5.616;2023-05-27T04:34:27;102630.72;;;7.53;100.00
59103;BME280;43999;51.660;5.616;2023-05-27T04:36:55;102627.19;;;7.57;100.00
59103;BME280;43999;51.660;5.616;2023-05-27T04:39:25;102621.03;;;7.63;100.00
59103;BME280;43999;51.660;5.616;2023-05-27T04:41:55;102627.88;;;7.73;100.00
59103;BME280;43999;51.660;5.616;2023-05-27T04:44:29;102623.38;;;7.83;100.00
59103;BME280;43999;51.660;5.616;2023-05-27T04:46:59;102621.50;;;7.93;100.00
59103;BME280;43999;51.660;5.616;2023-05-27T04:49:27;102621.38;;;8.00;100.00
59103;BME280;43999;51.660;5.616;2023-05-27T04:51:55;102624.66;;;8.13;100.00
59103;BME280;43999;51.660;5.616;2023-05-27T04:54:24;102615.03;;;8.18;100.00
59103;BME280;43999;51.660;5.616;2023-05-27T04:56:51;102613.31;;;8.16;100.00
59103;BME280;43999;51.660;5.616;2023-05-27T04:59:27;102622.88;;;8.18;100.00
59103;BME280;43999;51.660;5.616;2023-05-27T05:02:16;102615.00;;;8.21;100.00
59103;BME280;43999;51.660;5.616;2023-05-27T05:05:06;102607.97;;;8.23;100.00
59103;BME280;43999;51.660;5.616;2023-05-27T05:07:42;102613.09;;;8.30;100.00
59103;BME280;43999;51.660;5.616;2023-05-27T05:10:12;102613.00;;;8.36;100.00
59103;BME280;43999;51.660;5.616;2023-05-27T05:12:47;102612.09;;;8.40;100.00
59103;BME280;43999;51.660;5.616;2023-05-27T05:15:15;102611.19;;;8.41;100.00
59103;BME280;43999;51.660;5.616;2023-05-27T05:17:42;102610.19;;;8.51;100.00
59103;BME280;43999;51.660;5.616;2023-05-27T05:20:11;102609.19;;;8.58;100.00
59103;BME280;43999;51.660;5.616;2023-05-27T05:22:40;102606.56;;;8.60;100.00
59103;BME280;43999;51.660;5.616;2023-05-27T05:25:08;102604.63;;;8.70;100.00
59103;BME280;43999;51.660;5.616;2023-05-27T05:27:42;102613.25;;;8.75;100.00
59103;BME280;43999;51.660;5.616;2023-05-27T05:30:09;102607.88;;;8.83;100.00
59103;BME280;43999;51.660;5.616;2023-05-27T05:32:37;102606.09;;;8.86;100.00
59103;BME280;43999;51.660;5.616;2023-05-27T05:35:06;102599.00;;;8.93;100.00
59103;BME280;43999;51.660;5.616;2023-05-27T05:37:37;102605.84;;;9.00;100.00
59103;BME280;43999;51.660;5.616;2023-05-27T05:40:06;102599.59;;;9.07;100.00
59103;BME280;43999;51.660;5.616;2023-05-27T05:42:41;102611.47;;;9.24;100.00
59103;BME280;43999;51.660;5.616;2023-05-27T05:45:09;102605.97;;;9.38;100.00
59103;BME280;43999;51.660;5.616;2023-05-27T05:47:38;102591.06;;;9.41;100.00
59103;BME280;43999;51.660;5.616;2023-05-27T05:50:10;102599.66;;;9.46;100.00
59103;BME280;43999;51.660;5.616;2023-05-27T05:52:39;102593.50;;;9.49;100.00
59103;BME280;43999;51.660;5.616;2023-05-27T05:55:07;102589.78;;;9.61;100.00
59103;BME280;43999;51.660;5.616;2023-05-27T05:57:35;102592.34;;;9.64;100.00
59103;BME280;43999;51.660;5.616;2023-05-27T06:00:04;102593.06;;;9.71;100.00
59103;BME280;43999;51.660;5.616;2023-05-27T06:02:43;102596.19;;;9.86;100.00
59103;BME280;43999;51.660;5.616;2023-05-27T06:05:23;102590.72;;;9.96;100.00
59103;BME280;43999;51.660;5.616;2023-05-27T06:07:53;102594.09;;;10.02;100.00
59103;BME280;43999;51.660;5.616;2023-05-27T06:10:21;102592.22;;;10.08;100.00
59103;BME280;43999;51.660;5.616;2023-05-27T06:12:49;102590.41;;;10.10;100.00
59103;BME280;43999;51.660;5.616;2023-05-27T06:15:17;102579.75;;;10.17;100.00
59103;BME280;43999;51.660;5.616;2023-05-27T06:17:46;102581.28;;;10.26;100.00
59103;BME280;43999;51.660;5.616;2023-05-27T06:20:14;102580.28;;;10.32;100.00
59103;BME280;43999;51.660;5.616;2023-05-27T06:22:41;102576.84;;;10.28;100.00
59103;BME280;43999;51.660;5.616;2023-05-27T06:25:38;102576.78;;;10.31;100.00
59103;BME280;43999;51.660;5.616;2023-05-27T06:28:07;102580.00;;;10.44;100.00
59103;BME280;43999;51.660;5.616;2023-05-27T06:30:36;102576.31;;;10.51;100.00
59103;BME280;43999;51.660;5.616;2023-05-27T06:33:07;102577.88;;;10.58;100.00
59103;BME280;43999;51.660;5.616;2023-05-27T06:35:35;102580.44;;;10.62;100.00
59103;BME280;43999;51.660;5.616;2023-05-27T06:38:04;102580.44;;;10.62;100.00
59103;BME280;43999;51.660;5.616;2023-05-27T06:40:32;102572.47;;;10.65;100.00
59103;BME280;43999;51.660;5.616;2023-05-27T06:43:01;102575.84;;;10.70;100.00
59103;BME280;43999;51.660;5.616;2023-05-27T06:46:06;102574.75;;;10.79;100.00
59103;BME280;43999;51.660;5.616;2023-05-27T06:48:51;102572.78;;;10.85;100.00
59103;BME280;43999;51.660;5.616;2023-05-27T06:51:20;102564.72;;;10.93;100.00
59103;BME280;43999;51.660;5.616;2023-05-27T06:53:48;102567.72;;;11.10;100.00
59103;BME280;43999;51.660;5.616;2023-05-27T06:56:21;102563.91;;;11.22;100.00
59103;BME280;43999;51.660;5.616;2023-05-27T06:59:14;102550.31;;;11.38;100.00
59103;BME280;43999;51.660;5.616;2023-05-27T07:01:41;102556.00;;;11.52;100.00
59103;BME280;43999;51.660;5.616;2023-05-27T07:04:12;102552.16;;;11.64;100.00
59103;BME280;43999;51.660;5.616;2023-05-27T07:06:51;102550.88;;;11.77;100.00
59103;BME280;43999;51.660;5.616;2023-05-27T07:09:19;102546.28;;;11.84;100.00
59103;BME280;43999;51.660;5.616;2023-05-27T07:11:47;102545.19;;;11.90;100.00
59103;BME280;43999;51.660;5.616;2023-05-27T07:14:33;102559.69;;;12.03;100.00
59103;BME280;43999;51.660;5.616;2023-05-27T07:17:02;102555.63;;;12.21;100.00
59103;BME280;43999;51.660;5.616;2023-05-27T07:19:29;102557.06;;;12.30;100.00
59103;BME280;43999;51.660;5.616;2023-05-27T07:22:01;102555.16;;;12.35;100.00
59103;BME280;43999;51.660;5.616;2023-05-27T07:24:28;102556.50;;;12.47;100.00
59103;BME280;43999;51.660;5.616;2023-05-27T07:26:57;102559.00;;;12.50;100.00
59103;BME280;43999;51.660;5.616;2023-05-27T07:29:28;102560.59;;;12.55;100.00
59103;BME280;43999;51.660;5.616;2023-05-27T07:32:13;102556.00;;;12.61;100.00
59103;BME280;43999;51.660;5.616;2023-05-27T07:34:41;102545.28;;;12.67;100.00
59103;BME280;43999;51.660;5.616;2023-05-27T07:37:08;102546.78;;;12.74;100.00
59103;BME280;43999;51.660;5.616;2023-05-27T07:39:35;102543.78;;;12.85;100.00
59103;BME280;43999;51.660;5.616;2023-05-27T07:42:03;102543.59;;;12.89;100.00
59103;BME280;43999;51.660;5.616;2023-05-27T07:44:33;102542.59;;;12.94;100.00
59103;BME280;43999;51.660;5.616;2023-05-27T07:47:00;102535.38;;;12.99;100.00
59103;BME280;43999;51.660;5.616;2023-05-27T07:49:28;102526.78;;;13.17;100.00
59103;BME280;43999;51.660;5.616;2023-05-27T07:52:09;102515.97;;;13.49;100.00
59103;BME280;43999;51.660;5.616;2023-05-27T07:54:36;102515.88;;;13.72;100.00
59103;BME280;43999;51.660;5.616;2023-05-27T07:57:21;102517.97;;;13.86;100.00
59103;BME280;43999;51.660;5.616;2023-05-27T07:59:49;102512.13;;;14.00;100.00
59103;BME280;43999;51.660;5.616;2023-05-27T08:02:20;102511.63;;;14.12;98.67
59103;BME280;43999;51.660;5.616;2023-05-27T08:04:49;102504.72;;;14.30;99.28
59103;BME280;43999;51.660;5.616;2023-05-27T08:07:36;102508.06;;;14.75;98.22
59103;BME280;43999;51.660;5.616;2023-05-27T08:10:22;102514.50;;;15.27;95.34
59103;BME280;43999;51.660;5.616;2023-05-27T08:13:19;102509.25;;;15.82;92.51
59103;BME280;43999;51.660;5.616;2023-05-27T08:16:07;102498.97;;;16.28;91.25
59103;BME280;43999;51.660;5.616;2023-05-27T08:18:47;102506.91;;;16.79;85.36
59103;BME280;43999;51.660;5.616;2023-05-27T08:21:18;102498.25;;;17.09;83.83
59103;BME280;43999;51.660;5.616;2023-05-27T08:24:04;102489.69;;;17.36;83.42
59103;BME280;43999;51.660;5.616;2023-05-27T08:26:58;102483.94;;;17.60;80.89
59103;BME280;43999;51.660;5.616;2023-05-27T08:29:38;102474.63;;;17.83;77.25
59103;BME280;43999;51.660;5.616;2023-05-27T08:32:22;102478.22;;;17.98;74.85
59103;BME280;43999;51.660;5.616;2023-05-27T08:34:49;102465.44;;;18.04;73.99
59103;BME280;43999;51.660;5.616;2023-05-27T08:37:17;102469.66;;;18.23;73.17
59103;BME280;43999;51.660;5.616;2023-05-27T08:39:46;102466.84;;;18.40;73.76
59103;BME280;43999;51.660;5.616;2023-05-27T08:42:25;102469.28;;;18.72;70.34
59103;BME280;43999;51.660;5.616;2023-05-27T08:44:53;102466.63;;;18.87;68.47
59103;BME280;43999;51.660;5.616;2023-05-27T08:47:22;102462.66;;;18.94;69.09
59103;BME280;43999;51.660;5.616;2023-05-27T08:49:51;102455.41;;;19.10;68.99
59103;BME280;43999;51.660;5.616;2023-05-27T08:52:19;102452.75;;;19.38;67.62
59103;BME280;43999;51.660;5.616;2023-05-27T08:54:49;102449.97;;;19.66;64.83
59103;BME280;43999;51.660;5.616;2023-05-27T08:57:22;102453.16;;;19.99;62.66
59103;BME280;43999;51.660;5.616;2023-05-27T08:59:59;102446.66;;;20.16;64.04
59103;BME280;43999;51.660;5.616;2023-05-27T09:02:27;102443.13;;;20.41;60.68
59103;BME280;43999;51.660;5.616;2023-05-27T09:04:55;102437.25;;;20.49;61.24
59103;BME280;43999;51.660;5.616;2023-05-27T09:07:24;102434.16;;;20.68;63.28
59103;BME280;43999;51.660;5.616;2023-05-27T09:09:57;102434.03;;;21.06;61.06
59103;BME280;43999;51.660;5.616;2023-05-27T09:12:26;102438.28;;;21.33;59.58
59103;BME280;43999;51.660;5.616;2023-05-27T09:14:56;102434.16;;;21.53;58.86
59103;BME280;43999;51.660;5.616;2023-05-27T09:17:24;102429.75;;;21.76;54.40
59103;BME280;43999;51.660;5.616;2023-05-27T09:19:54;102433.19;;;21.90;53.89
59103;BME280;43999;51.660;5.616;2023-05-27T09:22:28;102420.84;;;22.00;52.38
59103;BME280;43999;51.660;5.616;2023-05-27T09:24:59;102426.31;;;21.98;53.11
59103;BME280;43999;51.660;5.616;2023-05-27T09:27:29;102426.78;;;22.15;52.08
59103;BME280;43999;51.660;5.616;2023-05-27T09:30:06;102423.44;;;22.35;51.36
59103;BME280;43999;51.660;5.616;2023-05-27T09:32:35;102414.69;;;22.56;52.28
59103;BME280;43999;51.660;5.616;2023-05-27T09:35:06;102424.38;;;22.80;50.61
59103;BME280;43999;51.660;5.616;2023-05-27T09:37:38;102412.09;;;22.88;50.26
59103;BME280;43999;51.660;5.616;2023-05-27T09:40:10;102418.38;;;23.10;49.84
59103;BME280;43999;51.660;5.616;2023-05-27T09:42:48;102412.66;;;23.36;47.42
59103;BME280;43999;51.660;5.616;2023-05-27T09:45:20;102409.31;;;23.55;46.54
59103;BME280;43999;51.660;5.616;2023-05-27T09:47:50;102410.38;;;23.73;45.83
59103;BME280;43999;51.660;5.616;2023-05-27T09:50:21;102407.13;;;23.70;44.14
59103;BME280;43999;51.660;5.616;2023-05-27T09:52:49;102402.44;;;23.41;44.94
59103;BME280;43999;51.660;5.616;2023-05-27T09:55:37;102392.59;;;23.09;46.30
59103;BME280;43999;51.660;5.616;2023-05-27T09:58:08;102385.41;;;22.66;45.99
59103;BME280;43999;51.660;5.616;2023-05-27T10:00:40;102388.09;;;22.43;46.65
59103;BME280;43999;51.660;5.616;2023-05-27T10:03:09;102390.16;;;22.40;46.92
59103;BME280;43999;51.660;5.616;2023-05-27T10:05:39;102374.84;;;22.42;47.08
59103;BME280;43999;51.660;5.616;2023-05-27T10:08:10;102378.50;;;22.52;46.63
59103;BME280;43999;51.660;5.616;2023-05-27T10:10:53;102375.69;;;22.65;47.15
59103;BME280;43999;51.660;5.616;2023-05-27T10:13:24;102376.34;;;22.89;45.70
59103;BME280;43999;51.660;5.616;2023-05-27T10:15:53;102370.00;;;23.13;45.28
59103;BME280;43999;51.660;5.616;2023-05-27T10:18:28;102372.03;;;23.42;44.33
59103;BME280;43999;51.660;5.616;2023-05-27T10:20:58;102368.56;;;23.72;45.51
59103;BME280;43999;51.660;5.616;2023-05-27T10:23:31;102363.94;;;23.95;42.37
59103;BME280;43999;51.660;5.616;2023-05-27T10:26:10;102364.09;;;24.04;40.93
59103;BME280;43999;51.660;5.616;2023-05-27T10:28:39;102368.13;;;24.19;41.20
59103;BME280;43999;51.660;5.616;2023-05-27T10:31:19;102366.06;;;24.42;40.30
59103;BME280;43999;51.660;5.616;2023-05-27T10:33:50;102364.91;;;24.35;40.56
59103;BME280;43999;51.660;5.616;2023-05-27T10:36:26;102354.19;;;24.35;39.94
59103;BME280;43999;51.660;5.616;2023-05-27T10:39:12;102365.44;;;24.19;40.60
59103;BME280;43999;51.660;5.616;2023-05-27T10:41:53;102351.28;;;24.07;40.66
59103;BME280;43999;51.660;5.616;2023-05-27T10:44:38;102360.66;;;24.23;40.83
59103;BME280;43999;51.660;5.616;2023-05-27T10:47:13;102351.84;;;24.42;40.40
59103;BME280;43999;51.660;5.616;2023-05-27T10:49:47;102345.84;;;24.69;39.57
59103;BME280;43999;51.660;5.616;2023-05-27T10:52:17;102332.59;;;24.87;40.06
59103;BME280;43999;51.660;5.616;2023-05-27T10:54:48;102329.91;;;25.06;38.69
59103;BME280;43999;51.660;5.616;2023-05-27T10:57:20;102338.78;;;25.27;38.35
59103;BME280;43999;51.660;5.616;2023-05-27T10:59:50;102332.72;;;25.34;37.65
59103;BME280;43999;51.660;5.616;2023-05-27T11:02:29;102325.50;;;25.45;36.07
59103;BME280;43999;51.660;5.616;2023-05-27T11:05:15;102323.09;;;25.51;35.35
59103;BME280;43999;51.660;5.616;2023-05-27T11:07:42;102320.97;;;25.45;35.57
59103;BME280;43999;51.660;5.616;2023-05-27T11:10:12;102317.22;;;25.38;35.80
59103;BME280;43999;51.660;5.616;2023-05-27T11:12:44;102311.25;;;25.34;35.92
59103;BME280;43999;51.660;5.616;2023-05-27T11:15:13;102309.84;;;25.40;36.06
59103;BME280;43999;51.660;5.616;2023-05-27T11:17:50;102313.94;;;25.44;36.66
59103;BME280;43999;51.660;5.616;2023-05-27T11:20:20;102300.78;;;25.51;36.46
59103;BME280;43999;51.660;5.616;2023-05-27T11:22:50;102300.06;;;25.58;37.20
59103;BME280;43999;51.660;5.616;2023-05-27T11:25:18;102300.06;;;25.58;36.82
59103;BME280;43999;51.660;5.616;2023-05-27T11:27:46;102291.47;;;25.45;36.39
59103;BME280;43999;51.660;5.616;2023-05-27T11:30:15;102291.94;;;25.21;36.63
59103;BME280;43999;51.660;5.616;2023-05-27T11:32:43;102290.56;;;24.97;37.36
59103;BME280;43999;51.660;5.616;2023-05-27T11:35:18;102282.94;;;24.73;37.71
59103;BME280;43999;51.660;5.616;2023-05-27T11:37:50;102276.81;;;24.51;38.78
59103;BME280;43999;51.660;5.616;2023-05-27T11:40:20;102268.19;;;24.38;38.77
59103;BME280;43999;51.660;5.616;2023-05-27T11:42:49;102268.78;;;24.42;39.49
59103;BME280;43999;51.660;5.616;2023-05-27T11:45:20;102262.31;;;24.54;37.57
59103;BME280;43999;51.660;5.616;2023-05-27T11:47:49;102263.28;;;24.43;36.78
59103;BME280;43999;51.660;5.616;2023-05-27T11:50:28;102254.81;;;24.38;38.32
59103;BME280;43999;51.660;5.616;2023-05-27T11:53:02;102243.38;;;24.46;39.06
59103;BME280;43999;51.660;5.616;2023-05-27T11:55:31;102238.34;;;24.52;38.26
59103;BME280;43999;51.660;5.616;2023-05-27T11:57:58;102245.38;;;24.53;38.82
59103;BME280;43999;51.660;5.616;2023-05-27T12:00:27;102241.31;;;24.59;38.79
59103;BME280;43999;51.660;5.616;2023-05-27T12:02:56;102237.06;;;24.57;38.33
59103;BME280;43999;51.660;5.616;2023-05-27T12:05:24;102227.19;;;24.47;39.59
59103;BME280;43999;51.660;5.616;2023-05-27T12:07:58;102227.19;;;24.47;38.47
59103;BME280;43999;51.660;5.616;2023-05-27T12:10:26;102226.06;;;24.40;39.56
59103;BME280;43999;51.660;5.616;2023-05-27T12:13:05;102236.19;;;24.37;39.39
59103;BME280;43999;51.660;5.616;2023-05-27T12:15:35;102232.81;;;24.25;39.36
59103;BME280;43999;51.660;5.616;2023-05-27T12:18:04;102223.06;;;24.14;40.00
59103;BME280;43999;51.660;5.616;2023-05-27T12:20:32;102220.94;;;24.08;39.57
59103;BME280;43999;51.660;5.616;2023-05-27T12:23:00;102217.38;;;23.97;39.62
59103;BME280;43999;51.660;5.616;2023-05-27T12:25:27;102212.53;;;23.81;39.60
59103;BME280;43999;51.660;5.616;2023-05-27T12:27:55;102206.28;;;23.71;39.65
59103;BME280;43999;51.660;5.616;2023-05-27T12:30:22;102206.44;;;23.70;40.58
59103;BME280;43999;51.660;5.616;2023-05-27T12:32:49;102213.75;;;23.68;40.01
59103;BME280;43999;51.660;5.616;2023-05-27T12:35:17;102195.47;;;23.73;41.08
59103;BME280;43999;51.660;5.616;2023-05-27T12:37:46;102192.16;;;23.90;40.57
59103;BME280;43999;51.660;5.616;2023-05-27T12:40:15;102203.59;;;24.02;40.14
59103;BME280;43999;51.660;5.616;2023-05-27T12:42:44;102200.38;;;24.08;39.90
59103;BME280;43999;51.660;5.616;2023-05-27T12:45:13;102188.09;;;24.06;40.23
59103;BME280;43999;51.660;5.616;2023-05-27T12:47:40;102186.97;;;24.08;39.66
59103;BME280;43999;51.660;5.616;2023-05-27T12:50:08;102185.16;;;24.19;38.87
59103;BME280;43999;51.660;5.616;2023-05-27T12:52:38;102187.00;;;24.28;39.00
59103;BME280;43999;51.660;5.616;2023-05-27T12:55:10;102169.94;;;24.29;38.54
59103;BME280;43999;51.660;5.616;2023-05-27T12:57:37;102174.59;;;24.37;38.83
59103;BME280;43999;51.660;5.616;2023-05-27T13:00:07;102169.09;;;24.38;39.31
59103;BME280;43999;51.660;5.616;2023-05-27T13:02:38;102167.84;;;24.62;39.70
59103;BME280;43999;51.660;5.616;2023-05-27T13:05:06;102165.69;;;24.85;38.21
59103;BME280;43999;51.660;5.616;2023-05-27T13:07:34;102164.69;;;24.96;36.60
59103;BME280;43999;51.660;5.616;2023-05-27T13:10:07;102159.00;;;25.09;36.53